Time;durP1;ratioP1;P1;durP2;ratioP2;P2;SDS_P1;SDS_P2;PMS_P1;PMS_P2;Temp;Humidity;BMP_temperature;BMP_pressure;BME280_temperature;BME280_humidity;BME280_pressure;Samples;Min_cycle;Max_cycle;Signal;HPM_P1;HPM_P2
2020/12/17 00:02:02;;;;;;;37.10;19.90;;;4.20;99.90;;;;;;5028390;28;20037;-51
2020/12/17 00:04:28;;;;;;;37.63;21.17;;;4.30;99.90;;;;;;5028199;28;20523;-56
2020/12/17 00:06:55;;;;;;;41.80;22.13;;;4.30;99.90;;;;;;5028589;28;20037;-56
2020/12/17 00:09:21;;;;;;;38.42;20.65;;;4.30;99.90;;;;;;5028257;28;20108;-55
2020/12/17 00:11:47;;;;;;;48.05;23.35;;;4.40;99.90;;;;;;5028261;28;20022;-55
2020/12/17 00:14:14;;;;;;;35.88;19.92;;;4.60;99.90;;;;;;5027425;28;20036;-55
2020/12/17 00:16:40;;;;;;;32.60;20.23;;;4.60;99.90;;;;;;5028752;28;20382;-56
2020/12/17 00:19:06;;;;;;;38.42;20.98;;;4.60;99.90;;;;;;5028122;28;20051;-57
2020/12/17 00:21:35;;;;;;;41.30;21.38;;;4.60;99.90;;;;;;5028197;28;20516;-58
2020/12/17 00:24:01;;;;;;;38.40;22.38;;;4.60;99.90;;;;;;5026355;28;20104;-56
2020/12/17 00:26:27;;;;;;;39.25;22.50;;;4.60;99.90;;;;;;5026599;28;20378;-56
2020/12/17 00:28:54;;;;;;;40.78;21.63;;;4.60;99.90;;;;;;5028080;28;20111;-55
2020/12/17 00:31:20;;;;;;;37.42;21.85;;;4.60;99.90;;;;;;5028425;28;20029;-56
2020/12/17 00:33:47;;;;;;;43.35;22.25;;;4.60;99.90;;;;;;5028298;28;20088;-52
2020/12/17 00:36:25;;;;;;;41.40;23.42;;;4.60;99.90;;;;;;5008382;28;20034;-55
2020/12/17 00:38:51;;;;;;;48.45;25.17;;;4.60;99.90;;;;;;5009130;28;20124;-56
2020/12/17 00:41:17;;;;;;;48.30;25.52;;;4.60;99.90;;;;;;5026618;28;20112;-56
2020/12/17 00:43:45;;;;;;;43.35;23.60;;;4.60;99.90;;;;;;5028121;28;20370;-57
2020/12/17 00:46:15;;;;;;;52.90;28.23;;;4.60;99.90;;;;;;5028259;28;20030;-56
2020/12/17 00:48:41;;;;;;;57.75;31.45;;;4.70;99.90;;;;;;5032236;28;20083;-55
2020/12/17 00:51:07;;;;;;;55.45;29.85;;;4.70;99.90;;;;;;5031571;28;20033;-58
2020/12/17 00:53:33;;;;;;;53.28;29.65;;;4.70;99.90;;;;;;5032217;28;20033;-55
2020/12/17 00:55:59;;;;;;;51.90;29.42;;;4.70;99.90;;;;;;5012369;28;20030;-58
2020/12/17 00:58:25;;;;;;;56.10;31.30;;;4.70;99.90;;;;;;5011915;28;20410;-54
2020/12/17 01:00:51;;;;;;;53.40;29.52;;;4.80;99.90;;;;;;5029623;28;20037;-56
2020/12/17 01:03:17;;;;;;;56.10;31.30;;;4.80;99.90;;;;;;5031718;28;20551;-52
2020/12/17 01:05:43;;;;;;;46.97;24.40;;;4.80;99.90;;;;;;5031607;28;20029;-54
2020/12/17 01:08:08;;;;;;;40.88;23.20;;;4.90;99.90;;;;;;5031529;28;20060;-55
2020/12/17 01:10:34;;;;;;;44.45;23.88;;;5.10;99.90;;;;;;5028604;28;20164;-55
2020/12/17 01:13:00;;;;;;;43.33;22.73;;;5.30;99.90;;;;;;5028599;28;20085;-58
2020/12/17 01:15:26;;;;;;;44.65;22.90;;;5.50;99.90;;;;;;5031407;28;20091;-53
2020/12/17 01:17:52;;;;;;;42.17;22.52;;;5.60;99.90;;;;;;5029312;28;20110;-54
2020/12/17 01:20:18;;;;;;;39.25;20.52;;;5.60;99.90;;;;;;5031530;28;20025;-56
2020/12/17 01:22:44;;;;;;;41.13;21.42;;;5.50;99.90;;;;;;5031421;28;20126;-56
2020/12/17 01:25:09;;;;;;;45.47;21.98;;;5.50;99.90;;;;;;5031124;28;20029;-59
2020/12/17 01:27:35;;;;;;;45.33;21.45;;;5.50;99.90;;;;;;5031507;28;20029;-57
2020/12/17 01:30:01;;;;;;;49.65;22.25;;;5.50;99.90;;;;;;5030248;28;20566;-54
2020/12/17 01:32:27;;;;;;;45.33;21.85;;;5.50;99.90;;;;;;5031534;28;20104;-55
2020/12/17 01:34:52;;;;;;;41.80;19.45;;;5.50;99.90;;;;;;5030703;28;20041;-56
2020/12/17 01:37:18;;;;;;;41.10;20.92;;;5.50;99.90;;;;;;5030977;28;20133;-56
2020/12/17 01:39:44;;;;;;;35.90;19.20;;;5.40;99.90;;;;;;5030526;28;20033;-58
2020/12/17 01:42:10;;;;;;;36.80;19.25;;;5.40;99.90;;;;;;5030919;28;20037;-56
2020/12/17 01:44:40;;;;;;;34.95;19.85;;;5.30;99.90;;;;;;5031054;28;20036;-53
2020/12/17 01:47:06;;;;;;;37.75;19.63;;;5.30;99.90;;;;;;5029551;28;20029;-53
2020/12/17 01:49:33;;;;;;;37.85;19.50;;;5.20;99.90;;;;;;5030195;28;20095;-50
2020/12/17 01:51:59;;;;;;;39.88;21.27;;;5.20;99.90;;;;;;5024905;28;20065;-52
2020/12/17 01:54:25;;;;;;;36.60;20.20;;;5.30;99.90;;;;;;5030986;28;20093;-53
2020/12/17 01:57:01;;;;;;;39.67;19.67;;;5.50;99.90;;;;;;5030363;28;20511;-54
2020/12/17 01:59:28;;;;;;;38.97;20.85;;;5.50;99.90;;;;;;5027981;28;20057;-55
2020/12/17 02:01:55;;;;;;;38.13;18.73;;;5.50;99.90;;;;;;5030568;28;20057;-58
2020/12/17 02:04:23;;;;;;;39.30;19.73;;;5.50;99.90;;;;;;5030794;28;20029;-58
2020/12/17 02:06:50;;;;;;;37.92;20.35;;;5.50;99.90;;;;;;5030292;28;20044;-56
2020/12/17 02:09:17;;;;;;;39.63;20.73;;;5.60;99.90;;;;;;5030336;28;20035;-49
2020/12/17 02:11:57;;;;;;;38.33;18.85;;;5.60;99.90;;;;;;5030221;28;20573;-53
2020/12/17 02:14:26;;;;;;;34.55;19.05;;;5.50;99.90;;;;;;5030342;28;20037;-55
2020/12/17 02:16:53;;;;;;;36.53;18.92;;;5.60;99.90;;;;;;5028146;28;20124;-56
2020/12/17 02:19:19;;;;;;;34.65;20.38;;;5.60;99.90;;;;;;5030311;28;20030;-53
2020/12/17 02:21:45;;;;;;;36.83;19.25;;;5.50;99.90;;;;;;5030525;28;20029;-51
2020/12/17 02:24:12;;;;;;;35.17;18.70;;;5.50;99.90;;;;;;5030152;28;20129;-53
2020/12/17 02:26:37;;;;;;;39.28;19.05;;;5.40;99.90;;;;;;5029848;28;20033;-57
2020/12/17 02:29:03;;;;;;;32.95;17.25;;;5.40;99.90;;;;;;5030203;28;20036;-55
2020/12/17 02:31:29;;;;;;;35.00;18.73;;;5.30;99.90;;;;;;5029614;28;20560;-50
2020/12/17 02:33:55;;;;;;;38.58;18.20;;;5.30;99.90;;;;;;5030008;28;20044;-53
2020/12/17 02:36:21;;;;;;;34.05;18.85;;;5.30;99.90;;;;;;5028957;28;20033;-54
2020/12/17 02:38:47;;;;;;;34.00;18.65;;;5.20;99.90;;;;;;5030182;28;20041;-49
2020/12/17 02:43:42;;;;;;;41.58;20.30;;;5.40;99.90;;;;;;4813764;22;20069;-55
2020/12/17 02:46:08;;;;;;;37.42;19.83;;;5.40;99.90;;;;;;5024686;28;20037;-55
2020/12/17 02:48:34;;;;;;;38.05;18.55;;;5.40;99.90;;;;;;5028800;28;20064;-56
2020/12/17 02:51:01;;;;;;;36.65;18.42;;;5.50;99.90;;;;;;5028144;28;20120;-52
2020/12/17 02:53:26;;;;;;;35.40;19.02;;;5.50;99.90;;;;;;5028759;28;20033;-57
2020/12/17 02:55:53;;;;;;;40.00;19.77;;;5.60;99.90;;;;;;5030024;28;20034;-55
2020/12/17 02:58:19;;;;;;;31.27;17.73;;;5.50;99.90;;;;;;5028202;28;20292;-56
2020/12/17 03:00:45;;;;;;;36.63;18.40;;;5.50;99.90;;;;;;5018781;28;20168;-51
2020/12/17 03:03:11;;;;;;;36.38;18.70;;;5.40;99.90;;;;;;5009829;28;20041;-56
2020/12/17 03:05:36;;;;;;;35.88;18.30;;;5.40;99.90;;;;;;5009994;28;20469;-54
2020/12/17 03:08:02;;;;;;;30.58;17.48;;;5.40;99.90;;;;;;5011127;28;20034;-56
2020/12/17 03:10:28;;;;;;;32.72;18.25;;;5.40;99.90;;;;;;5020748;28;20133;-51
2020/12/17 03:12:54;;;;;;;30.88;17.80;;;5.40;99.90;;;;;;5009539;28;20480;-50
2020/12/17 03:15:19;;;;;;;33.25;16.25;;;5.40;99.90;;;;;;5029484;28;20043;-59
2020/12/17 03:17:45;;;;;;;35.13;19.08;;;5.40;99.90;;;;;;5029516;28;20241;-58
2020/12/17 03:20:12;;;;;;;35.97;19.10;;;5.30;99.90;;;;;;5025502;28;20105;-55
2020/12/17 03:22:38;;;;;;;32.33;18.38;;;5.40;99.90;;;;;;5027098;28;20037;-52
2020/12/17 03:25:08;;;;;;;36.03;18.63;;;5.40;99.90;;;;;;5029403;28;20025;-52
2020/12/17 03:27:34;;;;;;;32.33;19.13;;;5.30;99.90;;;;;;5028231;28;20055;-49
2020/12/17 03:30:04;;;;;;;37.58;18.80;;;5.40;99.90;;;;;;5028488;28;20033;-55
2020/12/17 03:32:30;;;;;;;34.83;18.35;;;5.40;99.90;;;;;;5028847;28;20029;-53
2020/12/17 03:34:55;;;;;;;28.92;16.23;;;5.40;99.90;;;;;;5027152;28;20083;-58
2020/12/17 03:37:21;;;;;;;33.28;17.55;;;5.40;99.90;;;;;;5028521;28;20408;-53
2020/12/17 03:39:47;;;;;;;37.88;18.48;;;5.30;99.90;;;;;;5029048;28;20448;-53
2020/12/17 03:42:13;;;;;;;34.20;18.67;;;5.30;99.90;;;;;;5026737;28;20128;-59
2020/12/17 03:44:39;;;;;;;34.85;17.92;;;5.30;99.90;;;;;;5029317;28;20026;-54
2020/12/17 03:47:05;;;;;;;31.70;17.58;;;5.30;99.90;;;;;;5027904;28;20421;-56
2020/12/17 03:49:30;;;;;;;35.50;17.17;;;5.40;99.90;;;;;;5029112;28;20029;-55
2020/12/17 03:51:56;;;;;;;34.08;18.58;;;5.40;99.90;;;;;;5027321;28;20033;-52
2020/12/17 03:54:22;;;;;;;33.35;17.77;;;5.40;99.90;;;;;;5029029;28;20485;-51
2020/12/17 03:56:47;;;;;;;29.42;17.85;;;5.40;99.90;;;;;;5027690;28;20469;-53
2020/12/17 03:59:13;;;;;;;33.38;17.42;;;5.40;99.90;;;;;;5028709;28;20112;-54
2020/12/17 04:01:39;;;;;;;37.88;18.50;;;5.30;99.90;;;;;;5023272;28;20076;-54
2020/12/17 04:04:05;;;;;;;33.25;17.35;;;5.30;99.90;;;;;;5028746;28;20540;-52
2020/12/17 04:06:30;;;;;;;34.10;17.65;;;5.30;99.90;;;;;;5023233;28;20111;-54
2020/12/17 04:08:56;;;;;;;35.90;17.35;;;5.30;99.90;;;;;;5028842;28;20022;-54
2020/12/17 04:11:22;;;;;;;36.17;17.92;;;5.20;99.90;;;;;;5017658;28;20060;-57
2020/12/17 04:13:47;;;;;;;39.30;19.05;;;5.20;99.90;;;;;;5009138;28;20030;-52
2020/12/17 04:16:13;;;;;;;30.17;16.75;;;5.30;99.90;;;;;;5017054;28;20490;-56
2020/12/17 04:18:39;;;;;;;32.10;17.00;;;5.20;99.90;;;;;;5028516;28;20056;-52
2020/12/17 04:21:05;;;;;;;36.30;18.30;;;5.20;99.90;;;;;;5027149;28;20033;-55
2020/12/17 04:23:30;;;;;;;34.42;18.45;;;5.20;99.90;;;;;;5032680;28;20063;-55
2020/12/17 04:25:59;;;;;;;34.08;17.73;;;5.30;99.90;;;;;;5031236;28;20045;-54
2020/12/17 04:28:25;;;;;;;30.80;18.30;;;5.30;99.90;;;;;;5032792;28;20385;-53
2020/12/17 04:30:50;;;;;;;32.95;18.00;;;5.40;99.90;;;;;;5025353;28;20038;-58
2020/12/17 04:33:16;;;;;;;38.38;17.17;;;5.40;99.90;;;;;;5016612;28;20036;-49
2020/12/17 04:35:42;;;;;;;30.13;16.15;;;5.40;99.90;;;;;;5032349;28;20042;-56
2020/12/17 04:38:08;;;;;;;32.75;16.73;;;5.50;99.90;;;;;;5029015;28;20083;-59
2020/12/17 04:40:34;;;;;;;32.83;17.73;;;5.40;99.90;;;;;;5015584;28;20033;-57
2020/12/17 04:43:01;;;;;;;29.80;16.13;;;5.40;99.90;;;;;;5031247;28;20164;-55
2020/12/17 04:45:28;;;;;;;28.58;15.93;;;5.50;99.90;;;;;;5032428;28;20071;-54
2020/12/17 04:47:57;;;;;;;29.27;16.52;;;5.50;99.90;;;;;;5031652;28;20104;-54
2020/12/17 04:50:26;;;;;;;27.33;16.00;;;5.50;99.90;;;;;;5030800;28;20037;-53
2020/12/17 04:52:53;;;;;;;30.83;16.02;;;5.50;99.90;;;;;;5032265;28;20075;-54
2020/12/17 04:55:25;;;;;;;25.77;15.88;;;5.50;99.90;;;;;;5031032;28;20033;-55
2020/12/17 04:57:53;;;;;;;26.25;15.80;;;5.50;99.90;;;;;;5032468;28;20172;-53
2020/12/17 05:00:18;;;;;;;29.38;15.52;;;5.50;99.90;;;;;;5015200;28;20620;-55
2020/12/17 05:02:46;;;;;;;28.70;14.73;;;5.40;99.90;;;;;;5029300;28;20080;-54
2020/12/17 05:05:12;;;;;;;30.60;15.95;;;5.40;99.90;;;;;;5031984;28;20245;-54
2020/12/17 05:07:39;;;;;;;24.35;14.25;;;5.30;99.90;;;;;;5030495;28;20033;-55
2020/12/17 05:10:05;;;;;;;24.48;14.10;;;5.30;99.90;;;;;;5031880;28;20037;-59
2020/12/17 05:12:31;;;;;;;26.85;13.75;;;5.10;99.90;;;;;;5026670;28;20084;-53
2020/12/17 05:14:57;;;;;;;24.00;12.73;;;5.00;99.90;;;;;;5011952;28;20034;-55
2020/12/17 05:17:23;;;;;;;22.10;12.68;;;4.90;99.90;;;;;;5023036;28;20044;-59
2020/12/17 05:19:50;;;;;;;25.65;14.05;;;4.70;99.90;;;;;;5031997;28;20041;-56
2020/12/17 05:22:17;;;;;;;23.17;13.10;;;4.60;99.90;;;;;;5019745;28;20117;-53
2020/12/17 05:24:47;;;;;;;27.88;15.38;;;4.50;99.90;;;;;;5031617;28;20434;-57
2020/12/17 05:27:13;;;;;;;26.80;15.93;;;4.70;99.90;;;;;;5030825;28;20040;-52
2020/12/17 05:29:41;;;;;;;26.25;14.73;;;4.90;99.90;;;;;;5031519;28;20128;-54
2020/12/17 05:32:08;;;;;;;24.30;14.30;;;4.90;99.90;;;;;;5026602;28;20017;-56
2020/12/17 05:34:34;;;;;;;27.40;14.52;;;4.90;99.90;;;;;;5026441;28;20448;-49
2020/12/17 05:37:00;;;;;;;25.00;14.93;;;4.90;99.90;;;;;;5030578;28;20492;-51
2020/12/17 05:39:27;;;;;;;32.05;16.20;;;5.00;99.90;;;;;;5030363;28;20417;-56
2020/12/17 05:41:55;;;;;;;30.10;14.77;;;5.00;99.90;;;;;;5030019;28;20067;-51
2020/12/17 05:44:24;;;;;;;28.55;15.20;;;5.10;99.90;;;;;;5029609;28;20064;-53
2020/12/17 05:46:50;;;;;;;33.35;14.80;;;5.10;99.90;;;;;;5030162;28;20449;-52
2020/12/17 05:49:24;;;;;;;28.10;14.73;;;5.20;99.90;;;;;;5031028;28;20091;-54
2020/12/17 05:52:17;;;;;;;24.65;12.90;;;5.20;99.90;;;;;;5030014;28;20052;-50
2020/12/17 05:54:43;;;;;;;22.85;13.30;;;5.30;99.90;;;;;;5031030;28;20037;-53
2020/12/17 05:57:13;;;;;;;27.92;14.30;;;5.30;99.90;;;;;;5012869;28;20107;-56
2020/12/17 05:59:40;;;;;;;27.80;15.23;;;5.40;99.90;;;;;;5011176;28;20032;-56
2020/12/17 06:02:31;;;;;;;26.73;15.35;;;5.40;99.90;;;;;;5025191;28;20120;-49
2020/12/17 06:05:07;;;;;;;31.98;15.55;;;5.50;99.90;;;;;;5030087;28;20033;-54
2020/12/17 06:07:47;;;;;;;28.15;16.10;;;5.50;99.90;;;;;;5028221;28;20071;-54
2020/12/17 06:10:19;;;;;;;29.27;15.95;;;5.50;99.90;;;;;;5027831;28;20068;-52
2020/12/17 06:12:56;;;;;;;28.98;14.38;;;5.50;99.90;;;;;;5024589;28;20041;-54
2020/12/17 06:15:27;;;;;;;32.83;16.75;;;5.50;99.90;;;;;;5030084;28;20047;-57
2020/12/17 06:17:54;;;;;;;28.75;15.25;;;5.50;99.90;;;;;;5029492;28;20042;-59
2020/12/17 06:20:25;;;;;;;24.10;13.25;;;5.50;99.90;;;;;;5029404;28;20033;-55
2020/12/17 06:23:07;;;;;;;31.52;15.60;;;5.50;99.90;;;;;;5030696;28;20043;-54
2020/12/17 06:25:35;;;;;;;33.67;15.05;;;5.50;99.90;;;;;;5017470;28;20213;-54
2020/12/17 06:28:01;;;;;;;25.88;14.50;;;5.50;99.90;;;;;;5023089;28;20021;-56
2020/12/17 06:30:32;;;;;;;33.92;15.13;;;5.50;99.90;;;;;;5022321;28;20107;-51
2020/12/17 06:33:04;;;;;;;36.50;17.23;;;5.50;99.90;;;;;;5017565;28;20025;-54
2020/12/17 06:35:51;;;;;;;35.10;16.80;;;5.50;99.90;;;;;;5018933;28;20029;-55
2020/12/17 06:38:22;;;;;;;32.97;16.67;;;5.50;99.90;;;;;;5029409;28;20033;-55
2020/12/17 06:40:48;;;;;;;27.10;14.75;;;5.40;99.90;;;;;;5029134;28;20033;-56
2020/12/17 06:43:33;;;;;;;28.70;15.20;;;5.50;99.90;;;;;;5027411;28;20056;-56
2020/12/17 06:46:00;;;;;;;27.50;14.50;;;5.40;99.90;;;;;;5023432;28;20048;-56
2020/12/17 06:48:38;;;;;;;27.40;13.75;;;5.50;99.90;;;;;;5029418;28;20044;-52
2020/12/17 06:51:30;;;;;;;24.50;13.55;;;5.50;99.90;;;;;;5027934;28;20116;-56
2020/12/17 06:53:56;;;;;;;21.52;11.63;;;5.50;99.90;;;;;;5025153;28;20030;-56
2020/12/17 06:56:22;;;;;;;22.70;12.60;;;5.60;99.90;;;;;;5025866;28;20030;-57
2020/12/17 06:58:48;;;;;;;18.98;11.40;;;5.60;99.90;;;;;;5025717;28;20038;-53
2020/12/17 07:01:26;;;;;;;22.70;12.88;;;5.60;99.90;;;;;;5016685;28;20025;-57
2020/12/17 07:03:53;;;;;;;23.08;12.63;;;5.60;99.90;;;;;;5027222;28;20146;-58
2020/12/17 07:06:21;;;;;;;24.63;12.90;;;5.60;99.90;;;;;;5018904;28;20036;-56
2020/12/17 07:08:53;;;;;;;21.90;12.45;;;5.60;99.90;;;;;;5019079;28;20061;-52
2020/12/17 07:11:46;;;;;;;18.83;10.85;;;5.60;99.90;;;;;;5033169;28;20037;-55
2020/12/17 07:14:24;;;;;;;17.38;10.77;;;5.60;99.90;;;;;;5023135;28;20094;-55
2020/12/17 07:17:04;;;;;;;28.05;13.57;;;5.60;99.90;;;;;;5026058;28;20053;-56
2020/12/17 07:19:44;;;;;;;28.60;14.15;;;5.80;99.90;;;;;;5016644;28;20580;-56
2020/12/17 07:22:17;;;;;;;21.85;12.32;;;5.80;99.90;;;;;;5019913;28;20048;-55
2020/12/17 07:24:50;;;;;;;27.42;14.35;;;5.80;99.90;;;;;;5017591;28;20038;-55
2020/12/17 07:27:22;;;;;;;38.00;17.23;;;5.80;99.90;;;;;;5019153;28;20377;-56
2020/12/17 07:30:14;;;;;;;43.08;19.05;;;5.80;99.90;;;;;;5018001;28;20030;-53
2020/12/17 07:32:47;;;;;;;36.20;16.83;;;5.80;99.90;;;;;;5017045;28;20040;-54
2020/12/17 07:35:13;;;;;;;31.63;16.00;;;5.70;99.90;;;;;;5027708;28;20099;-56
2020/12/17 07:37:52;;;;;;;23.55;13.20;;;5.80;99.90;;;;;;5010265;28;20037;-55
2020/12/17 07:40:39;;;;;;;22.00;12.50;;;5.80;99.90;;;;;;5018469;28;20099;-55
2020/12/17 07:43:12;;;;;;;20.48;11.70;;;5.80;99.90;;;;;;5023483;28;20064;-55
2020/12/17 07:45:55;;;;;;;21.23;12.13;;;5.80;99.90;;;;;;5017508;28;20033;-54
2020/12/17 07:48:46;;;;;;;22.45;12.48;;;5.80;99.90;;;;;;5023341;28;20035;-56
2020/12/17 07:51:14;;;;;;;25.67;11.70;;;5.80;99.90;;;;;;5009389;28;20429;-57
2020/12/17 07:53:46;;;;;;;21.60;11.73;;;5.90;99.90;;;;;;5025523;28;20065;-55
2020/12/17 07:56:12;;;;;;;23.98;12.00;;;6.00;99.90;;;;;;5024281;28;20557;-55
2020/12/17 07:58:39;;;;;;;24.20;11.68;;;6.00;99.90;;;;;;5010613;28;20044;-54
2020/12/17 08:01:06;;;;;;;25.60;12.05;;;6.00;99.90;;;;;;5039754;28;20044;-58
2020/12/17 08:03:49;;;;;;;21.92;13.02;;;6.00;99.90;;;;;;5028947;28;20090;-55
2020/12/17 08:06:17;;;;;;;25.15;14.57;;;6.10;99.90;;;;;;5028924;28;20394;-55
2020/12/17 08:08:44;;;;;;;26.05;15.02;;;6.10;99.90;;;;;;5028608;28;20041;-57
2020/12/17 08:11:10;;;;;;;28.23;13.73;;;6.10;99.90;;;;;;5028474;28;20029;-58
2020/12/17 08:13:37;;;;;;;20.23;11.80;;;6.10;99.90;;;;;;5028861;28;20464;-54
2020/12/17 08:16:06;;;;;;;23.35;12.77;;;6.20;99.90;;;;;;5028885;28;20038;-55
2020/12/17 08:18:34;;;;;;;24.45;11.88;;;6.20;99.90;;;;;;5029238;28;20083;-55
2020/12/17 08:21:08;;;;;;;28.25;13.40;;;6.20;99.90;;;;;;5028651;28;20030;-55
2020/12/17 08:23:36;;;;;;;24.52;11.68;;;6.30;99.90;;;;;;5028434;28;20037;-58
2020/12/17 08:26:05;;;;;;;18.88;11.18;;;6.30;99.90;;;;;;5028603;28;20508;-54
2020/12/17 08:28:33;;;;;;;19.33;11.15;;;6.30;99.90;;;;;;5028506;28;20029;-58
2020/12/17 08:31:08;;;;;;;24.25;13.25;;;6.40;99.90;;;;;;5028551;28;20567;-56
2020/12/17 08:33:41;;;;;;;20.52;12.02;;;6.30;99.90;;;;;;5028564;28;20222;-54
2020/12/17 08:36:09;;;;;;;20.33;11.50;;;6.40;99.90;;;;;;5028646;28;20036;-55
2020/12/17 08:38:36;;;;;;;20.30;12.02;;;6.50;99.90;;;;;;5028418;28;20064;-57
2020/12/17 08:41:04;;;;;;;23.25;13.30;;;6.50;99.90;;;;;;5028363;28;20029;-58
2020/12/17 08:43:42;;;;;;;20.52;12.05;;;6.40;99.90;;;;;;5028133;28;20144;-56
2020/12/17 08:46:15;;;;;;;23.58;13.68;;;6.40;99.90;;;;;;5023500;28;20055;-57
2020/12/17 08:48:46;;;;;;;20.80;11.88;;;6.50;99.90;;;;;;5010496;28;20490;-54
2020/12/17 08:51:15;;;;;;;19.33;11.00;;;6.50;99.90;;;;;;5007666;28;20065;-52
2020/12/17 08:53:43;;;;;;;19.10;10.43;;;6.40;99.90;;;;;;5007884;28;20119;-56
2020/12/17 08:56:12;;;;;;;17.23;9.80;;;6.40;99.90;;;;;;5008344;28;20034;-57
2020/12/17 08:59:04;;;;;;;17.48;8.60;;;6.40;99.90;;;;;;5008380;28;20018;-52
2020/12/17 09:01:35;;;;;;;16.27;8.18;;;6.40;99.90;;;;;;5008441;28;20112;-57
2020/12/17 09:04:08;;;;;;;14.75;7.90;;;6.30;99.90;;;;;;5008376;28;20383;-53
2020/12/17 09:06:34;;;;;;;15.35;8.95;;;6.30;99.90;;;;;;5008464;28;20033;-54
2020/12/17 09:09:25;;;;;;;15.77;8.77;;;6.30;99.90;;;;;;5011333;28;20034;-56
2020/12/17 09:11:52;;;;;;;17.85;9.05;;;6.30;99.90;;;;;;5012141;28;20049;-57
2020/12/17 09:14:21;;;;;;;15.43;9.68;;;6.30;99.90;;;;;;5011947;28;20025;-56
2020/12/17 09:16:51;;;;;;;16.70;9.70;;;6.40;99.90;;;;;;5011880;28;20544;-53
2020/12/17 09:19:17;;;;;;;16.45;10.18;;;6.50;99.90;;;;;;5012268;28;20156;-54
2020/12/17 09:21:58;;;;;;;19.08;10.52;;;6.50;99.90;;;;;;5019614;28;20061;-53
2020/12/17 09:24:35;;;;;;;14.98;10.18;;;6.50;99.90;;;;;;5011615;28;20045;-56
2020/12/17 09:27:15;;;;;;;21.08;10.50;;;6.60;99.90;;;;;;5011373;28;20390;-52
2020/12/17 09:29:41;;;;;;;24.02;10.77;;;6.60;99.90;;;;;;5011547;28;20033;-54
2020/12/17 09:32:19;;;;;;;21.80;9.80;;;6.70;99.90;;;;;;5011538;28;20406;-51
2020/12/17 09:34:45;;;;;;;17.20;9.93;;;6.70;99.90;;;;;;5012291;28;20126;-57
2020/12/17 09:37:12;;;;;;;17.65;10.05;;;6.80;99.90;;;;;;5011720;28;20462;-55
2020/12/17 09:39:45;;;;;;;20.85;10.50;;;6.90;99.90;;;;;;5011817;28;20030;-57
2020/12/17 09:42:16;;;;;;;20.05;10.25;;;6.90;99.90;;;;;;5011281;28;20049;-56
2020/12/17 09:44:42;;;;;;;21.58;10.07;;;7.00;99.90;;;;;;5011501;28;20122;-53
2020/12/17 09:47:08;;;;;;;19.08;9.55;;;7.00;99.90;;;;;;5011578;28;20037;-56
2020/12/17 09:49:38;;;;;;;15.70;8.82;;;7.10;99.90;;;;;;5011760;28;20061;-54
2020/12/17 09:52:10;;;;;;;18.00;9.13;;;7.10;99.90;;;;;;5011474;28;20545;-54
2020/12/17 09:54:43;;;;;;;19.63;8.77;;;7.10;99.90;;;;;;5011874;28;20079;-55
2020/12/17 09:57:12;;;;;;;19.35;7.97;;;7.10;99.90;;;;;;5011237;28;20029;-55
2020/12/17 09:59:40;;;;;;;15.88;8.93;;;7.10;99.90;;;;;;5011654;28;20053;-54
2020/12/17 10:02:09;;;;;;;17.88;8.70;;;7.10;99.90;;;;;;5011032;28;20030;-55
2020/12/17 10:04:35;;;;;;;14.98;8.60;;;7.10;99.90;;;;;;5011231;28;20514;-52
2020/12/17 10:07:01;;;;;;;21.02;8.77;;;7.10;99.90;;;;;;5010895;28;20076;-54
2020/12/17 10:09:27;;;;;;;18.63;9.38;;;7.20;99.90;;;;;;5026455;28;20121;-56
2020/12/17 10:11:55;;;;;;;13.65;8.70;;;7.20;99.90;;;;;;5030407;28;20370;-53
2020/12/17 10:14:21;;;;;;;13.52;8.50;;;7.20;99.90;;;;;;5030513;28;20021;-53
2020/12/17 10:16:48;;;;;;;13.23;8.50;;;7.30;99.90;;;;;;5030497;28;20033;-54
2020/12/17 10:19:16;;;;;;;20.70;12.10;;;7.30;99.90;;;;;;5029670;28;20025;-57
2020/12/17 10:21:43;;;;;;;24.02;13.23;;;7.30;99.90;;;;;;5030966;28;20109;-54
2020/12/17 10:24:09;;;;;;;26.67;17.50;;;7.30;99.90;;;;;;5030235;28;20523;-56
2020/12/17 10:26:35;;;;;;;23.45;14.98;;;7.30;99.90;;;;;;5030636;28;20366;-55
2020/12/17 10:29:00;;;;;;;18.85;11.05;;;7.40;99.90;;;;;;5030282;28;20029;-55
2020/12/17 10:31:27;;;;;;;16.25;9.32;;;7.40;99.90;;;;;;5030445;28;20410;-57
2020/12/17 10:33:54;;;;;;;22.48;11.85;;;7.40;99.90;;;;;;5030239;28;20511;-56
2020/12/17 10:36:21;;;;;;;19.08;11.65;;;7.30;99.90;;;;;;5030178;28;20087;-56
2020/12/17 10:38:47;;;;;;;21.67;11.93;;;7.40;99.90;;;;;;5029911;28;20036;-57
2020/12/17 10:41:13;;;;;;;17.80;12.15;;;7.40;99.90;;;;;;5030310;28;20365;-52
2020/12/17 10:43:38;;;;;;;15.45;8.93;;;7.40;99.90;;;;;;5029801;28;20057;-54
2020/12/17 10:46:04;;;;;;;18.08;11.32;;;7.40;99.90;;;;;;5030433;28;20033;-55
2020/12/17 10:48:30;;;;;;;13.95;8.60;;;7.40;99.90;;;;;;5030095;28;20075;-55
2020/12/17 10:50:56;;;;;;;20.08;11.70;;;7.40;99.90;;;;;;5029877;28;20029;-55
2020/12/17 10:53:22;;;;;;;26.40;14.77;;;7.40;99.90;;;;;;5029713;28;20026;-51
2020/12/17 10:55:47;;;;;;;22.38;10.95;;;7.50;99.90;;;;;;5029958;28;20029;-58
2020/12/17 10:58:15;;;;;;;19.30;9.70;;;7.50;99.90;;;;;;5030249;28;20505;-57
2020/12/17 11:00:41;;;;;;;16.02;9.48;;;7.60;99.90;;;;;;5029877;28;20072;-57
2020/12/17 11:03:07;;;;;;;16.75;9.60;;;7.60;99.90;;;;;;5029762;28;20512;-54
2020/12/17 11:05:36;;;;;;;19.35;9.65;;;7.70;99.90;;;;;;5029949;28;20098;-56
2020/12/17 11:08:03;;;;;;;17.98;9.43;;;7.70;99.90;;;;;;5029657;28;20034;-57
2020/12/17 11:10:29;;;;;;;19.83;9.60;;;7.70;99.90;;;;;;5029902;28;20040;-56
2020/12/17 11:12:55;;;;;;;21.00;11.35;;;7.70;99.90;;;;;;5030056;28;20354;-52
2020/12/17 11:15:21;;;;;;;15.27;9.43;;;7.70;99.90;;;;;;5029904;28;20037;-57
2020/12/17 11:17:46;;;;;;;19.75;9.43;;;7.70;99.90;;;;;;5029587;28;20048;-55
2020/12/17 11:20:13;;;;;;;12.95;8.73;;;7.80;99.90;;;;;;5027940;28;20057;-56
2020/12/17 11:22:39;;;;;;;15.98;9.68;;;7.90;99.90;;;;;;5027396;28;20529;-55
2020/12/17 11:25:05;;;;;;;21.48;9.48;;;7.90;99.90;;;;;;5029261;28;20040;-56
2020/12/17 11:27:31;;;;;;;15.43;8.25;;;7.80;99.90;;;;;;5029482;28;20209;-54
2020/12/17 11:29:57;;;;;;;14.52;8.38;;;7.90;99.90;;;;;;5029611;28;20538;-55
2020/12/17 11:32:23;;;;;;;13.68;8.30;;;7.90;99.90;;;;;;5029261;28;20040;-55
2020/12/17 11:34:50;;;;;;;11.32;7.30;;;7.90;99.90;;;;;;5027749;28;20469;-54
2020/12/17 11:37:16;;;;;;;12.05;8.13;;;7.90;99.90;;;;;;5028946;28;20524;-55
2020/12/17 11:39:42;;;;;;;12.32;8.00;;;7.90;99.90;;;;;;5029239;28;20059;-55
2020/12/17 11:42:08;;;;;;;14.50;8.70;;;7.90;99.90;;;;;;5028884;28;20045;-57
2020/12/17 11:44:34;;;;;;;15.63;8.52;;;8.00;99.90;;;;;;5029233;28;20120;-51
2020/12/17 11:46:59;;;;;;;20.33;8.80;;;8.00;99.90;;;;;;5029013;28;20115;-56
2020/12/17 11:49:25;;;;;;;15.90;8.93;;;8.10;99.90;;;;;;5028931;28;20333;-54
2020/12/17 11:51:52;;;;;;;18.08;10.02;;;8.10;99.90;;;;;;5029071;28;20033;-54
2020/12/17 11:54:19;;;;;;;25.77;13.20;;;8.00;99.90;;;;;;5029013;28;20520;-53
2020/12/17 11:56:46;;;;;;;30.38;16.15;;;8.00;99.90;;;;;;5028763;28;20510;-57
2020/12/17 11:59:12;;;;;;;27.45;15.23;;;8.00;99.90;;;;;;5028833;28;20037;-58
2020/12/17 12:01:41;;;;;;;25.08;13.38;;;8.10;99.90;;;;;;5028814;28;20392;-55
2020/12/17 12:04:07;;;;;;;16.55;10.32;;;8.10;99.90;;;;;;5028649;28;20069;-57
2020/12/17 12:06:33;;;;;;;18.05;8.77;;;8.10;99.90;;;;;;5028448;28;20025;-51
2020/12/17 12:08:59;;;;;;;16.45;8.30;;;8.10;99.90;;;;;;5028921;28;20033;-57
2020/12/17 12:11:25;;;;;;;17.83;8.40;;;8.10;99.90;;;;;;5028974;28;20030;-56
2020/12/17 12:13:51;;;;;;;11.55;7.70;;;8.10;99.90;;;;;;5043787;28;20036;-55
2020/12/17 12:16:17;;;;;;;17.50;9.43;;;8.10;99.90;;;;;;5028565;28;20358;-55
2020/12/17 12:18:43;;;;;;;17.25;8.63;;;8.00;99.90;;;;;;5028687;28;20112;-57
2020/12/17 12:21:11;;;;;;;18.63;9.50;;;8.10;99.90;;;;;;5028817;28;20087;-55
2020/12/17 12:23:37;;;;;;;18.65;9.35;;;8.10;99.90;;;;;;5028474;28;20311;-56
2020/12/17 12:26:03;;;;;;;16.17;9.00;;;8.20;99.90;;;;;;5028500;28;20131;-55
2020/12/17 12:28:29;;;;;;;15.82;8.73;;;8.20;99.90;;;;;;5044043;28;20394;-56
2020/12/17 12:30:54;;;;;;;15.35;9.25;;;8.30;99.90;;;;;;5028592;28;20120;-57
2020/12/17 12:33:20;;;;;;;14.57;8.70;;;8.30;99.90;;;;;;5028355;28;20087;-57
2020/12/17 12:35:46;;;;;;;16.77;8.65;;;8.30;99.90;;;;;;5022817;28;20037;-54
2020/12/17 12:38:12;;;;;;;13.77;8.13;;;8.40;99.90;;;;;;5008417;28;20026;-54
2020/12/17 12:40:37;;;;;;;13.70;8.23;;;8.40;99.90;;;;;;5020520;28;20056;-58
2020/12/17 12:43:03;;;;;;;13.65;8.95;;;8.40;99.90;;;;;;5024847;28;20045;-56
2020/12/17 12:45:29;;;;;;;10.57;8.18;;;8.50;99.90;;;;;;5028319;28;20038;-55
2020/12/17 12:47:55;;;;;;;14.23;8.88;;;8.50;99.90;;;;;;5023244;28;20411;-54